Time;durP1;ratioP1;P1;durP2;ratioP2;P2;SDS_P1;SDS_P2;PMS_P1;PMS_P2;Temp;Humidity;BMP_temperature;BMP_pressure;BME280_temperature;BME280_humidity;BME280_pressure;Samples;Min_cycle;Max_cycle;Signal;HPM_P1;HPM_P2
2023/10/15 00:01:06;;;;;;;5.90;2.60;;;;;;;16.45;100.00;101068.75;21006953;28;20080;-70
2023/10/15 00:11:28;;;;;;;5.53;2.97;;;;;;;16.24;100.00;101059.94;21024953;28;20048;-70
2023/10/15 00:21:54;;;;;;;4.13;2.50;;;;;;;16.44;100.00;101048.31;20974405;28;20404;-70
2023/10/15 00:32:16;;;;;;;4.63;2.63;;;;;;;16.54;100.00;101042.06;20956598;28;20055;-70
2023/10/15 00:42:40;;;;;;;4.63;2.72;;;;;;;16.34;100.00;101028.84;20952818;28;20048;-70
2023/10/15 00:53:20;;;;;;;3.90;2.58;;;;;;;16.31;100.00;101027.06;20992287;28;20049;-70
2023/10/15 01:03:48;;;;;;;5.97;2.80;;;;;;;16.35;100.00;101026.13;20992828;28;20044;-70
2023/10/15 01:14:11;;;;;;;8.75;2.80;;;;;;;15.87;100.00;101011.22;20962598;28;20068;-70
2023/10/15 01:24:37;;;;;;;5.55;2.83;;;;;;;16.00;100.00;101009.41;20943914;28;20059;-70
2023/10/15 01:35:07;;;;;;;5.28;2.58;;;;;;;16.09;100.00;101006.69;20976429;28;20573;-70
2023/10/15 01:45:37;;;;;;;5.15;3.00;;;;;;;16.00;100.00;101005.84;20978228;28;20047;-69
2023/10/15 01:56:03;;;;;;;7.68;3.35;;;;;;;16.00;100.00;100995.19;20947824;28;20049;-70
2023/10/15 02:06:26;;;;;;;4.30;3.28;;;;;;;15.98;100.00;100986.31;20937216;28;20045;-70
2023/10/15 02:16:53;;;;;;;5.20;3.30;;;;;;;16.02;100.00;100975.63;20950188;28;20105;-70
2023/10/15 02:27:22;;;;;;;5.05;3.30;;;;;;;15.90;100.00;100976.56;20949941;28;20052;-69
2023/10/15 02:37:47;;;;;;;;;;;;;;;15.80;100.00;100977.50;20940554;28;20503;-70
2023/10/15 02:48:11;;;;;;;6.47;3.95;;;;;;;15.72;100.00;100973.97;20950203;28;20015;-70
2023/10/15 02:58:34;;;;;;;4.35;3.03;;;;;;;15.67;100.00;100975.75;20968946;28;20045;-70
2023/10/15 03:08:57;;;;;;;6.45;3.80;;;;;;;15.67;100.00;100969.53;20963980;28;20047;-71
2023/10/15 03:19:24;;;;;;;6.45;3.70;;;;;;;15.58;100.00;100961.56;20946954;28;20082;-70
2023/10/15 03:29:47;;;;;;;8.50;3.72;;;;;;;15.45;100.00;100972.19;20938878;28;20056;-70
2023/10/15 03:40:13;;;;;;;7.85;3.65;;;;;;;15.46;100.00;100981.06;20972678;28;20053;-70
2023/10/15 03:50:53;;;;;;;7.07;3.65;;;;;;;15.34;100.00;100973.97;20980813;28;20048;-69
2023/10/15 04:01:17;;;;;;;6.43;3.60;;;;;;;15.37;100.00;100979.28;20975362;28;20139;-69
2023/10/15 04:11:43;;;;;;;7.30;3.05;;;;;;;15.34;100.00;100973.97;20980255;28;20144;-70
2023/10/15 04:22:13;;;;;;;6.07;3.08;;;;;;;15.52;100.00;100970.41;21044286;28;20054;-69
2023/10/15 04:32:46;;;;;;;5.90;3.58;;;;;;;15.44;100.00;100956.22;21020227;28;20520;-70
2023/10/15 04:43:11;;;;;;;6.28;2.97;;;;;;;15.59;100.00;100955.34;20994206;28;20403;-69
2023/10/15 04:53:33;;;;;;;4.72;2.70;;;;;;;15.56;100.00;100956.22;20978106;28;20044;-69
2023/10/15 05:03:57;;;;;;;6.88;3.00;;;;;;;15.93;100.00;100959.72;20989165;28;20053;-70
2023/10/15 05:14:20;;;;;;;3.83;2.13;;;;;;;16.72;100.00;100960.25;20953822;28;20053;-70
2023/10/15 05:24:45;;;;;;;3.53;2.33;;;;;;;17.45;100.00;100967.69;21012791;28;20052;-70
2023/10/15 05:35:08;;;;;;;5.00;2.15;;;;;;;18.04;100.00;100952.84;20948116;28;20520;-70
2023/10/15 05:45:33;;;;;;;6.85;2.55;;;;;;;18.74;100.00;100957.28;20983863;28;20060;-70
2023/10/15 05:55:56;;;;;;;3.80;1.90;;;;;;;19.52;100.00;100969.41;20979961;28;20056;-70
2023/10/15 06:06:20;;;;;;;7.25;2.33;;;;;;;20.28;100.00;100963.47;20997123;28;20053;-70
2023/10/15 06:16:44;;;;;;;5.70;1.90;;;;;;;21.10;100.00;100969.69;20939882;28;20075;-71
2023/10/15 06:27:08;;;;;;;4.68;1.75;;;;;;;21.90;88.73;100982.84;20953148;28;20060;-70
2023/10/15 06:37:31;;;;;;;3.47;1.80;;;;;;;22.72;69.77;100991.22;21000545;28;20049;-71
2023/10/15 06:47:55;;;;;;;9.60;3.47;;;;;;;23.48;64.43;100999.63;20959240;28;20072;-70
2023/10/15 06:58:18;;;;;;;3.47;1.52;;;;;;;24.21;62.32;100994.34;20933683;28;20137;-71
2023/10/15 07:08:42;;;;;;;2.97;1.33;;;;;;;24.82;56.09;100989.28;21017741;28;20155;-70
2023/10/15 07:19:04;;;;;;;4.13;1.58;;;;;;;25.42;52.13;100986.81;20969538;28;20048;-71
2023/10/15 07:29:29;;;;;;;4.70;1.55;;;;;;;25.93;50.74;100985.53;21024058;28;20549;-71
2023/10/15 07:39:52;;;;;;;4.93;1.65;;;;;;;26.00;51.50;100989.72;20988976;28;20098;-71
2023/10/15 07:50:18;;;;;;;3.92;1.38;;;;;;;26.41;51.01;101000.56;21009417;28;20449;-71
2023/10/15 08:00:40;;;;;;;2.67;1.65;;;;;;;26.64;51.09;100997.66;20993996;28;20075;-70
2023/10/15 08:11:05;;;;;;;2.97;1.80;;;;;;;27.07;50.56;101003.75;20978299;28;20045;-71
2023/10/15 08:21:27;;;;;;;2.38;1.48;;;;;;;27.31;48.29;100997.13;20947181;28;21032;-71
2023/10/15 08:31:51;;;;;;;5.88;1.48;;;;;;;27.45;48.87;100991.00;20965342;28;20055;-71
2023/10/15 08:42:15;;;;;;;4.43;1.55;;;;;;;27.52;46.87;100982.50;20977351;28;20057;-71
2023/10/15 08:52:41;;;;;;;2.30;1.40;;;;;;;27.66;45.66;100982.69;20949901;28;20151;-71
2023/10/15 09:03:04;;;;;;;4.22;2.00;;;;;;;28.05;45.67;100981.53;20956679;28;20049;-71
2023/10/15 09:13:28;;;;;;;5.10;1.60;;;;;;;28.06;45.96;100975.16;20979117;28;20053;-71
2023/10/15 09:23:52;;;;;;;4.63;1.60;;;;;;;28.19;46.05;100980.84;20975118;28;20695;-71
2023/10/15 09:34:18;;;;;;;3.42;1.65;;;;;;;28.34;46.34;100961.88;20974507;28;20048;-71
2023/10/15 09:44:41;;;;;;;3.03;1.63;;;;;;;28.47;45.72;100934.91;20967320;28;20130;-71
2023/10/15 09:55:11;;;;;;;3.22;1.75;;;;;;;28.58;46.06;100923.44;20980460;28;20048;-71
2023/10/15 10:05:44;;;;;;;4.43;1.73;;;;;;;28.51;47.09;100910.19;20989308;28;20076;-71
2023/10/15 10:16:19;;;;;;;4.25;2.15;;;;;;;28.75;47.93;100901.66;20995721;28;20061;-71
2023/10/15 10:26:42;;;;;;;5.20;1.85;;;;;;;28.61;49.71;100893.38;21001430;28;20121;-71
2023/10/15 10:37:20;;;;;;;5.68;2.22;;;;;;;28.33;54.07;100870.50;21008251;28;20052;-71
2023/10/15 10:47:55;;;;;;;6.95;2.30;;;;;;;27.87;58.50;100876.66;20953855;28;20052;-70
2023/10/15 10:58:25;;;;;;;6.20;2.70;;;;;;;27.73;61.79;100863.84;20967710;28;20147;-72
2023/10/15 11:08:50;;;;;;;8.52;2.65;;;;;;;27.62;62.16;100850.88;20965491;28;20624;-71
2023/10/15 11:19:19;;;;;;;5.47;2.28;;;;;;;27.55;63.12;100846.72;20964860;28;20083;-71
2023/10/15 11:29:43;;;;;;;6.70;2.47;;;;;;;27.48;64.08;100838.97;20926140;28;20488;-71
2023/10/15 11:40:12;;;;;;;5.13;2.38;;;;;;;27.17;68.27;100829.72;20941936;28;20114;-71
2023/10/15 11:50:35;;;;;;;8.52;2.53;;;;;;;26.89;72.97;100829.41;20973167;28;20056;-71
2023/10/15 12:00:59;;;;;;;7.47;2.65;;;;;;;26.62;79.62;100825.31;20950904;28;20048;-70
2023/10/15 12:11:22;;;;;;;6.97;2.63;;;;;;;26.38;83.65;100841.84;21017593;28;20196;-70
2023/10/15 12:21:46;;;;;;;6.20;2.72;;;;;;;26.35;83.96;100832.97;20984775;28;20140;-70
2023/10/15 12:32:12;;;;;;;7.15;3.20;;;;;;;26.25;88.92;100832.56;20965537;28;20087;-71
2023/10/15 12:42:37;;;;;;;6.28;3.20;;;;;;;26.09;88.84;100821.53;20997481;28;20037;-71
2023/10/15 12:52:59;;;;;;;8.20;2.83;;;;;;;26.00;90.89;100830.06;20945421;28;20052;-70
2023/10/15 13:03:25;;;;;;;10.48;3.65;;;;;;;25.90;91.20;100825.19;20989042;28;20056;-71
2023/10/15 13:13:47;;;;;;;8.00;2.97;;;;;;;25.80;89.92;100824.72;20960755;28;20057;-71
2023/10/15 13:24:12;;;;;;;6.28;3.08;;;;;;;25.73;86.93;100825.97;20995031;28;20044;-70
2023/10/15 13:34:35;;;;;;;9.65;3.10;;;;;;;25.58;85.76;100830.25;20931467;28;20044;-70
2023/10/15 13:44:59;;;;;;;7.75;3.42;;;;;;;25.44;92.16;100823.66;20958304;28;20049;-70
2023/10/15 13:55:22;;;;;;;8.23;3.42;;;;;;;25.25;96.32;100819.09;20967762;28;20063;-71
2023/10/15 14:05:46;;;;;;;6.53;3.70;;;;;;;25.10;100.00;100808.94;20955396;28;20033;-71
2023/10/15 14:16:08;;;;;;;6.95;2.88;;;;;;;24.86;100.00;100812.66;20967886;28;20571;-71
2023/10/15 14:26:32;;;;;;;8.38;3.70;;;;;;;24.65;100.00;100818.97;20968168;28;20040;-70
2023/10/15 14:36:57;;;;;;;12.27;4.47;;;;;;;24.50;100.00;100829.44;21028469;28;20428;-69
2023/10/15 14:47:22;;;;;;;10.25;3.90;;;;;;;24.30;100.00;100823.97;21009975;28;20139;-71
2023/10/15 14:57:45;;;;;;;9.30;4.07;;;;;;;24.15;100.00;100830.84;21022270;28;20052;-70
2023/10/15 15:08:09;;;;;;;12.38;4.50;;;;;;;23.99;100.00;100837.75;20989894;28;20098;-70
2023/10/15 15:18:31;;;;;;;10.00;4.88;;;;;;;23.81;100.00;100833.06;20987356;28;20109;-71
2023/10/15 15:28:57;;;;;;;10.48;4.90;;;;;;;23.61;100.00;100850.00;20936019;28;20048;-70
2023/10/15 15:39:20;;;;;;;10.02;5.78;;;;;;;23.42;100.00;100841.66;20970367;28;20408;-70
2023/10/15 15:49:44;;;;;;;10.70;6.10;;;;;;;23.24;100.00;100852.19;20966848;28;20052;-71
2023/10/15 16:00:09;;;;;;;10.40;5.00;;;;;;;23.02;100.00;100873.63;20973671;28;20469;-71
2023/10/15 16:10:35;;;;;;;11.50;5.55;;;;;;;22.86;100.00;100873.25;20943552;28;20048;-70
2023/10/15 16:20:57;;;;;;;10.60;5.80;;;;;;;22.59;100.00;100876.78;20961818;28;20044;-71
2023/10/15 16:31:21;;;;;;;19.13;7.22;;;;;;;22.47;100.00;100880.75;20975718;28;20109;-71
2023/10/15 16:41:44;;;;;;;14.82;6.88;;;;;;;22.38;100.00;100904.41;20971830;28;20052;-70
2023/10/15 16:52:08;;;;;;;11.68;5.22;;;;;;;22.43;100.00;100902.44;20949989;28;20053;-70
2023/10/15 17:02:30;;;;;;;10.10;5.22;;;;;;;22.36;100.00;100903.56;20972174;28;20056;-70
2023/10/15 17:12:54;;;;;;;12.15;6.32;;;;;;;22.37;100.00;100911.59;20946447;28;20056;-70
2023/10/15 17:23:17;;;;;;;9.13;4.82;;;;;;;22.35;100.00;100899.09;20948084;28;20092;-71
2023/10/15 17:33:41;;;;;;;10.10;5.57;;;;;;;22.44;100.00;100917.66;20961204;28;20094;-71
2023/10/15 17:44:04;;;;;;;11.07;4.68;;;;;;;22.54;100.00;100916.44;20923699;28;20249;-71
2023/10/15 17:54:30;;;;;;;10.60;4.82;;;;;;;22.58;100.00;100934.25;20942918;28;20540;-71
2023/10/15 18:04:54;;;;;;;10.40;4.82;;;;;;;22.47;100.00;100933.69;20938039;28;20404;-70
2023/10/15 18:15:18;;;;;;;10.07;5.53;;;;;;;22.42;100.00;100938.34;20958589;28;20053;-74
2023/10/15 18:25:40;;;;;;;10.82;5.07;;;;;;;22.27;100.00;100950.44;20938367;28;20098;-73
2023/10/15 18:36:05;;;;;;;9.75;5.13;;;;;;;22.09;100.00;100937.53;20906011;28;20136;-73
2023/10/15 18:46:29;;;;;;;11.02;6.18;;;;;;;22.04;100.00;100942.16;20927012;28;20040;-74
2023/10/15 18:56:53;;;;;;;11.63;5.55;;;;;;;22.09;100.00;100946.47;20941616;28;20774;-73
2023/10/15 19:07:17;;;;;;;9.85;6.05;;;;;;;22.12;100.00;100941.00;20958787;28;20048;-73
2023/10/15 19:17:41;;;;;;;9.13;5.28;;;;;;;22.07;100.00;100948.31;20954036;28;20056;-74
2023/10/15 19:28:05;;;;;;;11.50;5.40;;;;;;;21.91;100.00;100943.41;20928902;28;20045;-74
2023/10/15 19:38:29;;;;;;;10.65;6.35;;;;;;;21.77;100.00;100944.69;20962734;28;20060;-72
2023/10/15 19:48:52;;;;;;;15.75;6.40;;;;;;;21.67;100.00;100939.56;20921287;28;20064;-72
2023/10/15 19:59:20;;;;;;;12.60;6.32;;;;;;;21.69;100.00;100924.28;20943775;28;20148;-72
2023/10/15 20:09:45;;;;;;;15.05;6.35;;;;;;;21.71;100.00;100928.72;20970917;28;20048;-72
2023/10/15 20:20:11;;;;;;;11.70;5.63;;;;;;;21.81;100.00;100923.94;20937490;28;20048;-73
2023/10/15 20:30:34;;;;;;;14.93;6.28;;;;;;;21.89;100.00;100913.88;20955755;28;20381;-73
2023/10/15 20:40:58;;;;;;;15.40;7.75;;;;;;;21.62;100.00;100910.16;20965477;28;20110;-74
2023/10/15 20:51:20;;;;;;;14.50;6.45;;;;;;;21.36;100.00;100902.78;20975632;28;20053;-73
2023/10/15 21:01:44;;;;;;;11.63;6.93;;;;;;;21.26;100.00;100905.78;20974255;28;20460;-74
2023/10/15 21:12:07;;;;;;;14.73;6.70;;;;;;;21.21;100.00;100900.50;20992521;28;20516;-73
2023/10/15 21:22:31;;;;;;;12.82;6.93;;;;;;;21.07;100.00;100897.25;20948569;28;20102;-73
2023/10/15 21:32:54;;;;;;;13.80;6.80;;;;;;;20.90;100.00;100896.78;20969617;28;20106;-73
2023/10/15 21:43:18;;;;;;;14.13;7.05;;;;;;;20.80;100.00;100889.91;20937076;28;20052;-73
2023/10/15 21:53:41;;;;;;;16.88;8.25;;;;;;;20.60;100.00;100893.06;20975424;28;20512;-73
2023/10/15 22:04:06;;;;;;;15.70;7.72;;;;;;;20.52;100.00;100890.56;20943079;28;20055;-74
2023/10/15 22:14:30;;;;;;;11.70;7.13;;;;;;;20.49;100.00;100885.25;20944173;28;20057;-73
2023/10/15 22:24:55;;;;;;;15.23;7.03;;;;;;;20.40;100.00;100877.44;20941442;28;20052;-73
2023/10/15 22:35:22;;;;;;;13.20;7.20;;;;;;;20.30;100.00;100881.19;20943762;28;20512;-73
2023/10/15 22:45:46;;;;;;;16.55;7.65;;;;;;;20.22;100.00;100881.34;20950493;28;20098;-73
2023/10/15 22:56:09;;;;;;;16.23;7.38;;;;;;;20.11;100.00;100895.91;20977885;28;20052;-73
2023/10/15 23:06:33;;;;;;;15.90;7.18;;;;;;;19.94;100.00;100880.19;20946090;28;20527;-73
2023/10/15 23:17:00;;;;;;;17.77;7.75;;;;;;;19.79;100.00;100876.03;20951436;28;20535;-72
2023/10/15 23:27:24;;;;;;;16.88;7.97;;;;;;;19.58;100.00;100873.78;20935061;28;20048;-73
2023/10/15 23:37:47;;;;;;;16.33;7.88;;;;;;;19.70;100.00;100864.59;20967191;28;20051;-73
2023/10/15 23:48:26;;;;;;;13.63;7.03;;;;;;;19.49;100.00;100857.91;20966503;28;20060;-73
2023/10/15 23:58:56;;;;;;;14.33;7.40;;;;;;;19.39;100.00;100850.91;20949428;28;20174;-73
